Time;durP1;ratioP1;P1;durP2;ratioP2;P2;SDS_P1;SDS_P2;PMS_P1;PMS_P2;Temp;Humidity;BMP_temperature;BMP_pressure;BME280_temperature;BME280_humidity;BME280_pressure;Samples;Min_cycle;Max_cycle;Signal;HPM_P1;HPM_P2
2022/09/13 00:00:55;;;;;;;;;;;;;;;16.51;79.79;100925.22;5056162;28;20280;-85
2022/09/13 00:03:20;;;;;;;2.20;2.00;;;;;;;16.49;79.51;100924.41;5056008;28;19913;-84
2022/09/13 00:05:46;;;;;;;2.17;1.93;;;;;;;16.49;79.96;100929.66;5054974;28;20032;-84
2022/09/13 00:08:12;;;;;;;1.90;1.80;;;;;;;16.51;79.85;100924.34;5055679;28;20028;-84
2022/09/13 00:10:40;;;;;;;1.90;1.80;;;;;;;16.51;79.68;100929.56;5055438;28;20028;-84
2022/09/13 00:13:07;;;;;;;1.58;1.48;;;;;;;16.51;79.36;100924.34;5055290;28;20029;-84
2022/09/13 00:15:33;;;;;;;1.60;1.50;;;;;;;16.51;79.48;100930.44;5054443;28;20083;-85
2022/09/13 00:17:58;;;;;;;1.50;1.40;;;;;;;16.52;79.54;100926.91;5055126;28;20120;-84
2022/09/13 00:20:23;;;;;;;1.77;1.67;;;;;;;16.53;80.00;100927.75;5054872;28;20315;-84
2022/09/13 00:22:49;;;;;;;2.00;1.80;;;;;;;16.52;79.62;100920.81;5055336;28;20103;-84
2022/09/13 00:25:14;;;;;;;1.90;1.70;;;;;;;16.54;79.42;100926.00;5054854;28;20029;-84
2022/09/13 00:27:39;;;;;;;1.70;1.60;;;;;;;16.52;79.38;100916.44;5058710;28;20037;-85
2022/09/13 00:30:06;;;;;;;1.40;1.30;;;;;;;16.52;79.54;100905.97;5075240;28;20020;-85
2022/09/13 00:32:35;;;;;;;1.50;1.40;;;;;;;16.52;79.22;100910.31;5068587;28;20033;-84
2022/09/13 00:35:04;;;;;;;1.70;1.60;;;;;;;16.54;79.24;100910.28;5055039;28;20028;-84
2022/09/13 00:37:32;;;;;;;1.80;1.70;;;;;;;16.52;79.63;100898.09;5055004;28;20075;-85
2022/09/13 00:39:57;;;;;;;1.83;1.73;;;;;;;16.51;79.49;100903.38;5060362;28;20034;-85
2022/09/13 00:42:28;;;;;;;1.60;1.50;;;;;;;16.52;79.46;100900.72;5074850;28;20119;-84
2022/09/13 00:44:59;;;;;;;1.70;1.60;;;;;;;16.51;79.70;100895.53;5074526;28;20021;-84
2022/09/13 00:47:32;;;;;;;1.73;1.63;;;;;;;16.51;79.49;100895.53;5074079;28;20473;-84
2022/09/13 00:50:26;;;;;;;2.00;1.80;;;;;;;16.52;79.59;100894.63;5074693;28;20115;-85
2022/09/13 00:53:07;;;;;;;1.70;1.60;;;;;;;16.50;80.40;100889.44;5072047;28;20043;-84
2022/09/13 00:55:42;;;;;;;1.95;1.80;;;;;;;16.48;79.98;100880.78;5065785;28;20111;-84
2022/09/13 00:58:12;;;;;;;1.80;1.70;;;;;;;16.48;79.95;100880.78;5054876;28;20048;-85
2022/09/13 01:00:38;;;;;;;1.70;1.60;;;;;;;16.49;79.68;100881.66;5053676;28;20037;-84
2022/09/13 01:03:06;;;;;;;;;;;;;;;16.49;79.66;100872.00;5054877;28;20497;-85
2022/09/13 01:05:42;;;;;;;1.92;1.83;;;;;;;16.50;79.56;100875.47;5053318;28;20431;-85
2022/09/13 01:08:14;;;;;;;1.80;1.70;;;;;;;16.49;79.52;100882.50;5053951;28;20040;-84
2022/09/13 01:10:42;;;;;;;1.90;1.80;;;;;;;16.49;80.66;100881.66;5054316;28;20469;-84
2022/09/13 01:13:16;;;;;;;1.55;1.45;;;;;;;16.49;80.25;100881.66;5054351;28;20039;-84
2022/09/13 01:15:42;;;;;;;1.50;1.40;;;;;;;16.47;80.12;100873.00;5053078;28;20045;-84
2022/09/13 01:18:09;;;;;;;2.20;2.00;;;;;;;16.46;80.64;100876.53;5054194;28;20024;-84
2022/09/13 01:21:11;;;;;;;1.92;1.80;;;;;;;16.45;80.07;100882.69;5064701;28;20043;-84
2022/09/13 01:24:06;;;;;;;1.73;1.63;;;;;;;16.45;79.98;100878.28;5024564;28;20051;-84
2022/09/13 01:26:45;;;;;;;1.80;1.70;;;;;;;16.44;80.17;100867.88;5054384;28;20029;-85
2022/09/13 01:29:22;;;;;;;1.67;1.58;;;;;;;16.45;79.77;100880.91;5053574;28;20029;-84
2022/09/13 01:32:19;;;;;;;1.60;1.50;;;;;;;16.44;80.08;100884.44;5054028;28;20112;-84
2022/09/13 01:34:51;;;;;;;1.80;1.70;;;;;;;16.46;80.01;100873.91;5053744;28;20029;-84
2022/09/13 01:37:19;;;;;;;1.67;1.58;;;;;;;16.46;79.55;100884.38;5053323;28;20060;-84
2022/09/13 01:40:04;;;;;;;1.80;1.70;;;;;;;16.47;79.71;100879.09;5053667;28;20032;-84
2022/09/13 01:42:40;;;;;;;1.63;1.52;;;;;;;16.47;79.89;100873.00;5053972;28;20029;-84
2022/09/13 01:45:33;;;;;;;1.77;1.67;;;;;;;16.48;79.68;100867.69;5053870;28;20370;-84
2022/09/13 01:48:05;;;;;;;1.75;1.65;;;;;;;16.47;79.77;100863.38;5053674;28;20058;-84
2022/09/13 01:50:47;;;;;;;1.70;1.60;;;;;;;16.47;80.13;100868.59;5061678;28;20116;-85
2022/09/13 01:53:24;;;;;;;1.60;1.50;;;;;;;16.46;80.11;100863.44;5073649;28;20465;-84
2022/09/13 01:56:28;;;;;;;1.75;1.65;;;;;;;16.44;79.99;100866.09;5073363;28;20374;-84
2022/09/13 01:59:03;;;;;;;1.90;1.80;;;;;;;16.46;79.70;100863.44;4991262;28;20057;-85
2022/09/13 02:01:45;;;;;;;1.92;1.83;;;;;;;16.46;79.85;100861.66;5063439;28;20025;-85
2022/09/13 02:04:16;;;;;;;2.38;2.13;;;;;;;16.47;79.60;100863.38;5072873;28;20383;-85
2022/09/13 02:07:05;;;;;;;1.92;1.70;;;;;;;16.49;79.84;100863.31;5073202;28;20545;-85
2022/09/13 02:09:35;;;;;;;1.90;1.80;;;;;;;16.49;79.77;100860.69;5073489;28;20445;-85
2022/09/13 02:12:13;;;;;;;2.10;1.90;;;;;;;16.49;79.79;100860.69;5072264;28;20532;-85
2022/09/13 02:14:42;;;;;;;1.80;1.70;;;;;;;16.49;79.80;100865.94;5063497;28;20020;-84
2022/09/13 02:17:24;;;;;;;1.90;1.80;;;;;;;16.49;79.81;100861.53;5053142;28;20033;-84
2022/09/13 02:19:58;;;;;;;2.00;1.90;;;;;;;16.50;79.97;100865.00;5047674;28;20033;-84
2022/09/13 02:22:32;;;;;;;1.63;1.52;;;;;;;16.50;79.89;100870.22;5053396;28;20021;-85
2022/09/13 02:25:20;;;;;;;2.10;1.90;;;;;;;16.48;80.11;100866.84;5051949;28;20481;-84
2022/09/13 02:27:50;;;;;;;1.70;1.60;;;;;;;16.47;80.22;100871.22;5051852;28;20469;-84
2022/09/13 02:30:16;;;;;;;1.77;1.67;;;;;;;16.48;80.08;100874.72;5051888;28;20115;-84
2022/09/13 02:32:55;;;;;;;1.70;1.60;;;;;;;16.48;80.14;100869.47;5051231;28;20436;-85
2022/09/13 02:35:25;;;;;;;1.83;1.73;;;;;;;16.47;80.37;100863.38;5053201;28;20100;-84
2022/09/13 02:37:59;;;;;;;1.45;1.35;;;;;;;16.48;80.37;100859.84;5052330;28;20029;-84
2022/09/13 02:40:29;;;;;;;1.70;1.60;;;;;;;16.48;80.22;100866.84;5051761;28;20036;-85
2022/09/13 02:43:02;;;;;;;1.90;1.80;;;;;;;16.49;80.17;100869.41;5058794;28;20029;-85
2022/09/13 02:45:39;;;;;;;2.10;1.90;;;;;;;16.49;80.32;100876.41;5072873;28;20037;-85
2022/09/13 02:48:24;;;;;;;2.03;1.83;;;;;;;16.49;80.29;100882.50;5072289;28;20051;-84
2022/09/13 02:51:02;;;;;;;1.95;1.85;;;;;;;16.47;80.49;100886.94;5072746;28;20043;-84
2022/09/13 02:53:44;;;;;;;1.80;1.70;;;;;;;16.49;80.77;100887.72;5072091;28;20529;-85
2022/09/13 02:56:37;;;;;;;1.92;1.80;;;;;;;16.49;80.70;100889.53;5066133;28;20420;-84
2022/09/13 02:59:15;;;;;;;1.60;1.50;;;;;;;16.47;80.75;100888.72;5053005;28;20033;-85
2022/09/13 03:01:44;;;;;;;1.88;1.77;;;;;;;16.48;81.80;100891.25;5051755;28;20032;-85
2022/09/13 03:04:10;;;;;;;1.75;1.65;;;;;;;16.46;80.91;100889.63;5052714;28;20029;-85
2022/09/13 03:06:36;;;;;;;1.77;1.67;;;;;;;16.46;81.21;100889.63;5053015;28;20029;-85
2022/09/13 03:09:05;;;;;;;1.88;1.77;;;;;;;16.47;81.76;100893.97;5052217;28;20096;-85
2022/09/13 03:12:02;;;;;;;2.10;1.90;;;;;;;16.48;81.21;100890.44;5058207;28;20021;-85
2022/09/13 03:14:48;;;;;;;1.60;1.50;;;;;;;16.48;81.00;100891.25;5051854;28;20021;-84
2022/09/13 03:17:30;;;;;;;1.50;1.40;;;;;;;16.50;80.91;100896.44;5052689;28;20099;-85
2022/09/13 03:20:19;;;;;;;1.95;1.85;;;;;;;16.52;80.51;100889.38;5052053;28;20021;-85
2022/09/13 03:23:09;;;;;;;1.90;1.80;;;;;;;16.53;80.58;100880.59;5051419;28;20090;-85
2022/09/13 03:25:58;;;;;;;1.83;1.73;;;;;;;16.55;80.49;100876.16;5052693;28;20472;-85
2022/09/13 03:28:52;;;;;;;1.90;1.80;;;;;;;16.54;80.77;100871.00;5051855;28;20564;-84
2022/09/13 03:31:26;;;;;;;1.80;1.70;;;;;;;16.52;80.73;100865.78;5052495;28;20436;-85
2022/09/13 03:33:57;;;;;;;1.90;1.80;;;;;;;16.54;80.71;100874.44;5052443;28;20017;-85
2022/09/13 03:36:34;;;;;;;1.77;1.67;;;;;;;16.55;80.58;100876.16;5062137;28;20035;-85
2022/09/13 03:39:33;;;;;;;1.80;1.70;;;;;;;16.55;80.73;100864.84;5072200;28;20029;-85
2022/09/13 03:42:04;;;;;;;1.77;1.67;;;;;;;16.54;80.94;100863.97;5071971;28;20032;-85
2022/09/13 03:44:33;;;;;;;1.20;1.10;;;;;;;16.54;81.04;100871.84;5071640;28;20040;-84
2022/09/13 03:47:01;;;;;;;1.42;1.33;;;;;;;16.51;81.12;100862.34;5072106;28;20082;-84
2022/09/13 03:49:28;;;;;;;1.30;1.30;;;;;;;16.51;80.79;100862.34;5071654;28;20028;-84
2022/09/13 03:51:54;;;;;;;2.13;1.92;;;;;;;16.50;81.17;100871.09;5075463;28;20028;-85
2022/09/13 03:54:24;;;;;;;1.55;1.45;;;;;;;16.50;81.16;100860.63;5075980;28;20020;-85
2022/09/13 03:57:10;;;;;;;1.60;1.50;;;;;;;16.50;80.77;100865.88;5074945;28;20028;-84
2022/09/13 03:59:38;;;;;;;1.58;1.48;;;;;;;16.50;80.76;100859.75;5076187;28;20096;-84
2022/09/13 04:02:10;;;;;;;1.75;1.65;;;;;;;16.50;80.92;100862.38;5073982;28;20036;-85
2022/09/13 04:04:37;;;;;;;1.70;1.60;;;;;;;16.48;81.26;100864.22;5071295;28;20036;-85
2022/09/13 04:07:03;;;;;;;;;;;;;;;16.48;81.68;100870.31;5076199;28;20028;-84
2022/09/13 04:09:29;;;;;;;1.60;1.50;;;;;;;16.47;81.28;100870.38;5075679;28;20430;-84
2022/09/13 04:11:54;;;;;;;1.80;1.67;;;;;;;16.45;81.38;100878.28;5074408;28;20017;-84
2022/09/13 04:14:20;;;;;;;1.60;1.50;;;;;;;16.43;81.22;100882.75;5075518;28;20052;-85
2022/09/13 04:16:45;;;;;;;1.50;1.40;;;;;;;16.45;81.22;100887.91;5075241;28;20045;-84
2022/09/13 04:19:11;;;;;;;1.80;1.70;;;;;;;16.43;82.06;100898.47;5074750;28;20049;-84
2022/09/13 04:21:37;;;;;;;1.83;1.63;;;;;;;16.43;82.13;100892.34;5075650;28;20467;-85
2022/09/13 04:24:02;;;;;;;1.63;1.52;;;;;;;16.41;81.14;100891.56;5075378;28;20021;-84
2022/09/13 04:26:27;;;;;;;1.40;1.30;;;;;;;16.40;81.37;100897.72;5074680;28;20032;-85
2022/09/13 04:28:53;;;;;;;1.60;1.50;;;;;;;16.39;80.99;100899.50;5065066;28;20029;-84
2022/09/13 04:31:18;;;;;;;1.60;1.50;;;;;;;16.37;81.02;100901.31;5055085;28;20029;-84
2022/09/13 04:33:43;;;;;;;1.73;1.63;;;;;;;16.35;80.84;100895.28;5054165;28;20103;-84
2022/09/13 04:36:09;;;;;;;2.00;1.50;;;;;;;16.31;81.01;100899.78;5054640;28;20025;-85
2022/09/13 04:38:36;;;;;;;1.80;1.70;;;;;;;16.30;80.87;100903.31;5054465;28;20048;-84
2022/09/13 04:41:01;;;;;;;1.98;1.80;;;;;;;16.29;80.73;100903.38;5055055;28;20025;-84
2022/09/13 04:43:26;;;;;;;1.80;1.50;;;;;;;16.28;80.91;100909.53;5055211;28;20028;-85
2022/09/13 04:45:51;;;;;;;1.70;1.60;;;;;;;16.25;80.99;100907.88;5053669;28;20028;-84
2022/09/13 04:48:17;;;;;;;1.80;1.70;;;;;;;16.23;81.20;100907.09;5055091;28;20151;-85
2022/09/13 04:50:43;;;;;;;1.57;1.47;;;;;;;16.22;81.86;100910.59;5054836;28;20473;-84
2022/09/13 04:53:09;;;;;;;1.35;1.33;;;;;;;16.22;82.44;100913.22;5059332;28;20028;-85
2022/09/13 04:55:35;;;;;;;1.87;1.77;;;;;;;16.21;81.47;100917.59;5071635;28;20017;-85
2022/09/13 04:58:01;;;;;;;1.60;1.50;;;;;;;16.20;81.75;100918.53;5054500;28;20031;-85
2022/09/13 05:00:27;;;;;;;2.15;1.98;;;;;;;16.19;81.67;100906.34;5053995;28;20485;-83
2022/09/13 05:02:55;;;;;;;2.17;1.97;;;;;;;16.19;81.56;100914.22;5053624;28;20027;-85
2022/09/13 05:05:22;;;;;;;2.22;2.00;;;;;;;16.17;81.91;100913.41;5054777;28;20082;-84
2022/09/13 05:07:51;;;;;;;3.42;1.85;;;;;;;16.18;81.46;100909.00;5053837;28;20025;-83
2022/09/13 05:10:17;;;;;;;1.83;1.73;;;;;;;16.18;81.69;100912.50;5054052;28;20056;-84
2022/09/13 05:12:42;;;;;;;1.90;1.80;;;;;;;16.19;81.70;100910.72;5053819;28;20025;-84
2022/09/13 05:15:09;;;;;;;2.03;1.83;;;;;;;16.19;81.57;100911.59;5053009;28;20045;-84
2022/09/13 05:17:34;;;;;;;2.03;1.90;;;;;;;16.20;81.64;100915.91;5054176;28;20489;-82
2022/09/13 05:20:00;;;;;;;1.80;1.70;;;;;;;16.20;81.70;100913.31;5054727;28;20032;-82
2022/09/13 05:22:25;;;;;;;1.87;1.77;;;;;;;16.20;81.57;100908.06;5054335;28;20443;-83
2022/09/13 05:24:50;;;;;;;1.90;1.80;;;;;;;16.21;81.25;100911.53;5054074;28;20115;-83
2022/09/13 05:27:16;;;;;;;1.67;1.57;;;;;;;16.21;81.80;100906.28;5053808;28;20029;-83
2022/09/13 05:29:41;;;;;;;1.70;1.60;;;;;;;16.21;81.67;100906.28;5052926;28;20033;-82
2022/09/13 05:32:06;;;;;;;3.13;1.67;;;;;;;16.22;82.03;100915.84;5054277;28;20469;-82
2022/09/13 05:34:31;;;;;;;1.83;1.73;;;;;;;16.24;81.65;100921.00;5054109;28;20029;-83
2022/09/13 05:36:57;;;;;;;1.80;1.70;;;;;;;16.25;81.81;100926.22;5052641;28;20037;-83
2022/09/13 05:39:22;;;;;;;1.90;1.80;;;;;;;16.27;81.74;100926.16;5053751;28;20059;-82
2022/09/13 05:41:48;;;;;;;1.70;1.60;;;;;;;16.27;82.08;100926.97;5053066;28;20358;-83
2022/09/13 05:44:13;;;;;;;1.80;1.70;;;;;;;16.28;81.76;100923.47;5053831;28;20112;-83
2022/09/13 05:46:38;;;;;;;1.73;1.50;;;;;;;16.29;81.62;100925.16;5054512;28;20032;-83
2022/09/13 05:49:04;;;;;;;2.60;1.80;;;;;;;16.31;81.67;100928.59;5053172;28;20029;-82
2022/09/13 05:51:29;;;;;;;2.20;2.00;;;;;;;16.32;81.90;100932.91;5053365;28;20036;-83
2022/09/13 05:53:56;;;;;;;2.23;2.00;;;;;;;16.35;82.17;100927.56;5053235;28;20040;-82
2022/09/13 05:56:31;;;;;;;1.95;1.80;;;;;;;16.37;81.96;100924.88;5052782;28;21979;-81
2022/09/13 05:58:57;;;;;;;2.25;2.00;;;;;;;16.40;82.15;100921.28;5054327;28;20040;-81
2022/09/13 06:01:26;;;;;;;2.20;2.00;;;;;;;16.42;82.12;100924.69;5053534;28;20025;-83
2022/09/13 06:03:54;;;;;;;1.80;1.70;;;;;;;16.43;81.96;100923.78;5053221;28;20017;-81
2022/09/13 06:06:20;;;;;;;2.03;1.92;;;;;;;16.46;82.20;100928.91;5067891;28;20036;-81
2022/09/13 06:08:45;;;;;;;1.90;1.80;;;;;;;16.48;82.10;100924.47;5054189;28;20024;-81
2022/09/13 06:11:13;;;;;;;2.73;1.97;;;;;;;16.49;82.37;100919.16;5063713;28;20025;-81
2022/09/13 06:13:38;;;;;;;2.20;2.00;;;;;;;16.50;82.36;100920.88;5052052;28;20461;-82
2022/09/13 06:16:06;;;;;;;2.57;2.00;;;;;;;16.52;82.27;100924.31;5068373;28;20111;-83
2022/09/13 06:18:33;;;;;;;2.13;1.92;;;;;;;16.57;82.35;100931.09;5072343;28;20457;-81
2022/09/13 06:21:05;;;;;;;2.13;1.92;;;;;;;16.58;82.42;100923.22;5073194;28;20027;-82
2022/09/13 06:23:30;;;;;;;2.10;1.90;;;;;;;16.61;82.36;100923.06;5075938;28;20021;-84
2022/09/13 06:26:07;;;;;;;2.00;1.90;;;;;;;16.67;82.68;100925.47;5072128;28;20329;-83
2022/09/13 06:28:33;;;;;;;1.90;1.80;;;;;;;16.71;82.56;100912.25;5055070;28;20021;-86
2022/09/13 06:31:10;;;;;;;1.70;1.60;;;;;;;16.73;82.62;100911.25;5052841;28;20080;-85
2022/09/13 06:33:37;;;;;;;1.90;1.80;;;;;;;16.76;82.57;100916.38;5052961;28;20029;-85
2022/09/13 06:36:08;;;;;;;1.60;1.50;;;;;;;16.80;82.73;100912.72;5053140;28;20496;-86
2022/09/13 06:38:33;;;;;;;2.10;1.90;;;;;;;16.85;82.57;100915.13;5052334;28;20021;-85
2022/09/13 06:41:03;;;;;;;2.00;1.90;;;;;;;16.91;82.43;100914.91;5052877;28;20646;-86
2022/09/13 06:43:29;;;;;;;2.05;1.88;;;;;;;16.95;82.49;100913.88;5064344;28;20028;-85
2022/09/13 06:45:58;;;;;;;1.70;1.60;;;;;;;17.00;82.34;100912.84;5066675;28;20027;-85
2022/09/13 06:48:24;;;;;;;2.00;1.80;;;;;;;17.03;82.05;100913.56;5052337;28;20032;-85
2022/09/13 06:50:49;;;;;;;2.07;1.90;;;;;;;17.09;82.30;100913.34;5052092;28;20025;-85
2022/09/13 06:53:14;;;;;;;1.70;1.60;;;;;;;17.13;82.31;100920.13;5051902;28;20025;-85
2022/09/13 06:55:39;;;;;;;2.03;1.90;;;;;;;17.20;82.21;100917.28;5052640;28;20029;-85
2022/09/13 06:58:05;;;;;;;2.77;1.93;;;;;;;17.37;82.43;100920.03;5052396;28;20033;-85
2022/09/13 07:00:30;;;;;;;2.05;1.90;;;;;;;17.75;82.13;100920.13;5051716;28;20025;-85
2022/09/13 07:02:56;;;;;;;1.93;1.83;;;;;;;18.43;81.70;100913.59;5053200;28;20464;-85
2022/09/13 07:05:21;;;;;;;2.50;2.23;;;;;;;19.24;80.37;100915.84;5052858;28;20029;-85
2022/09/13 07:07:47;;;;;;;2.00;1.90;;;;;;;19.71;79.35;100911.69;5051215;28;20033;-85
2022/09/13 07:10:12;;;;;;;2.30;2.00;;;;;;;19.99;77.70;100917.28;5058991;28;20036;-85
2022/09/13 07:12:40;;;;;;;2.30;2.10;;;;;;;20.02;76.82;100919.78;5072200;28;20023;-84
2022/09/13 07:15:06;;;;;;;2.30;2.10;;;;;;;19.92;77.00;100918.56;5071588;28;20048;-85
2022/09/13 07:17:31;;;;;;;3.10;2.30;;;;;;;19.80;77.15;100920.88;5072658;28;20029;-85
2022/09/13 07:19:56;;;;;;;2.67;2.20;;;;;;;19.70;77.01;100917.03;5072277;28;20028;-85
2022/09/13 07:22:25;;;;;;;2.83;2.40;;;;;;;19.62;77.09;100919.19;5072208;28;20453;-85
2022/09/13 07:24:51;;;;;;;2.55;2.30;;;;;;;19.56;77.50;100921.25;5072593;28;20362;-85
2022/09/13 07:27:16;;;;;;;2.13;1.93;;;;;;;19.50;77.51;100924.16;5076314;28;20051;-84
2022/09/13 07:29:41;;;;;;;4.50;2.80;;;;;;;19.42;77.42;100929.81;5075842;28;20032;-85
2022/09/13 07:32:07;;;;;;;3.03;2.50;;;;;;;19.40;77.73;100929.06;5074937;28;20033;-85
2022/09/13 07:34:32;;;;;;;2.67;2.40;;;;;;;19.41;77.92;100928.16;5075613;28;20021;-85
2022/09/13 07:36:57;;;;;;;2.63;2.37;;;;;;;19.43;78.01;100925.44;5074879;28;20054;-85
2022/09/13 07:39:23;;;;;;;2.37;2.17;;;;;;;19.45;77.89;100936.72;5075611;28;20078;-85
2022/09/13 07:41:49;;;;;;;2.63;2.30;;;;;;;19.49;78.14;100934.78;5075427;28;20021;-85
2022/09/13 07:44:14;;;;;;;2.88;2.38;;;;;;;19.54;78.29;100938.03;5076110;28;20384;-85
2022/09/13 07:46:40;;;;;;;3.43;2.60;;;;;;;19.60;78.14;100943.81;5076051;28;20033;-86
2022/09/13 07:49:06;;;;;;;5.95;3.80;;;;;;;19.59;77.80;100934.22;5075251;28;20024;-85
2022/09/13 07:51:34;;;;;;;5.10;3.22;;;;;;;19.65;77.79;100942.75;5075433;28;20052;-85
2022/09/13 07:54:02;;;;;;;4.72;3.35;;;;;;;19.70;77.65;100949.47;5075785;28;20020;-85
2022/09/13 07:56:33;;;;;;;16.13;8.70;;;;;;;19.68;76.77;100942.59;5075356;28;20031;-85
2022/09/13 07:59:00;;;;;;;19.52;11.40;;;;;;;19.60;76.48;100951.72;5075911;28;20545;-85
2022/09/13 08:01:28;;;;;;;17.92;9.88;;;;;;;19.57;77.01;100948.41;5075940;28;20035;-85
2022/09/13 08:04:08;;;;;;;12.68;7.05;;;;;;;19.61;77.60;100942.06;5073346;28;20028;-85
2022/09/13 08:06:35;;;;;;;8.60;5.22;;;;;;;19.71;77.96;100952.94;5076012;28;20046;-85
2022/09/13 08:09:03;;;;;;;7.97;4.55;;;;;;;19.78;78.07;100948.22;5075813;28;20044;-85
2022/09/13 08:11:33;;;;;;;5.50;3.80;;;;;;;19.86;78.60;100949.53;5075007;28;20115;-85
2022/09/13 08:14:00;;;;;;;4.60;3.30;;;;;;;19.98;78.13;100950.69;5073540;28;20063;-85
2022/09/13 08:16:26;;;;;;;3.50;2.78;;;;;;;20.08;78.37;100948.41;5075106;28;20564;-85
2022/09/13 08:18:57;;;;;;;3.00;2.50;;;;;;;20.17;78.20;100952.34;5074549;28;20029;-84
2022/09/13 08:21:24;;;;;;;2.78;2.40;;;;;;;20.25;78.11;100954.56;5075417;28;20091;-85
2022/09/13 08:23:52;;;;;;;2.95;2.38;;;;;;;20.31;77.70;100960.34;5074727;28;20020;-86
2022/09/13 08:26:19;;;;;;;6.15;3.85;;;;;;;20.36;77.11;100953.03;5070769;28;20029;-86
2022/09/13 08:28:44;;;;;;;10.05;5.05;;;;;;;20.40;77.02;100956.34;5071151;28;20645;-86
2022/09/13 08:31:16;;;;;;;5.90;3.50;;;;;;;20.47;77.48;100959.50;5061477;28;20078;-86
2022/09/13 08:33:44;;;;;;;7.75;4.50;;;;;;;20.54;77.34;100966.16;5055081;28;20029;-86
2022/09/13 08:36:09;;;;;;;14.27;7.60;;;;;;;20.62;77.17;100966.56;5053951;28;20052;-86
2022/09/13 08:38:34;;;;;;;13.43;7.30;;;;;;;20.70;76.89;100967.91;5061482;28;20025;-87
2022/09/13 08:41:16;;;;;;;9.37;5.50;;;;;;;20.75;76.85;100974.66;5054904;28;20029;-86
2022/09/13 08:43:53;;;;;;;7.25;4.40;;;;;;;20.84;75.20;100973.28;5057608;28;20020;-86
2022/09/13 08:46:44;;;;;;;12.55;6.47;;;;;;;20.90;76.35;100972.09;5073675;28;20159;-86
2022/09/13 08:49:22;;;;;;;14.73;7.30;;;;;;;20.95;75.84;100970.91;5075118;28;20028;-86
2022/09/13 08:51:52;;;;;;;20.00;10.93;;;;;;;20.96;75.27;100975.25;5073706;28;20024;-86
2022/09/13 08:54:19;;;;;;;19.83;11.00;;;;;;;20.94;74.91;100971.84;5074794;28;20146;-86
2022/09/13 08:57:16;;;;;;;19.20;10.60;;;;;;;21.00;75.18;100973.28;5056559;28;20396;-85
2022/09/13 08:59:58;;;;;;;12.90;6.72;;;;;;;21.11;75.85;100962.09;5061526;28;20024;-86
2022/09/13 09:02:51;;;;;;;13.80;7.30;;;;;;;21.24;74.81;100963.06;5054672;28;20029;-88
2022/09/13 09:05:19;;;;;;;13.55;7.35;;;;;;;21.35;74.71;100962.47;5056213;28;20047;-86
2022/09/13 09:07:51;;;;;;;14.05;7.10;;;;;;;21.49;74.67;100966.06;5053827;28;20021;-86
2022/09/13 09:10:23;;;;;;;11.68;6.15;;;;;;;21.61;74.97;100970.66;5054534;28;20048;-86
2022/09/13 09:12:55;;;;;;;7.72;4.60;;;;;;;21.75;74.73;100957.44;5052985;28;20039;-86
2022/09/13 09:15:24;;;;;;;4.25;3.22;;;;;;;21.93;75.03;100949.34;5058766;28;20538;-86
2022/09/13 09:18:11;;;;;;;9.30;4.53;;;;;;;22.12;72.74;100948.19;5073803;28;20064;-86
2022/09/13 09:20:42;;;;;;;17.05;9.27;;;;;;;22.12;72.47;100950.84;5060761;28;20107;-85
2022/09/13 09:23:18;;;;;;;16.02;8.20;;;;;;;22.08;71.81;100949.31;5061665;28;20029;-87
2022/09/13 09:25:44;;;;;;;14.43;7.88;;;;;;;22.03;71.55;100941.69;5073630;28;20028;-86
2022/09/13 09:28:14;;;;;;;;;;;;;;;22.05;73.24;100948.59;5072887;28;20464;-86
2022/09/13 09:31:07;;;;;;;7.22;4.50;;;;;;;22.15;72.92;100948.03;5072325;28;19958;-86
2022/09/13 09:33:50;;;;;;;8.32;4.50;;;;;;;22.23;73.55;100944.91;5071607;28;20031;-86
2022/09/13 09:36:42;;;;;;;17.08;9.13;;;;;;;22.20;70.22;100949.44;5070964;28;20033;-86
2022/09/13 09:39:15;;;;;;;12.63;6.00;;;;;;;22.17;72.54;100954.91;5073699;28;20408;-86
2022/09/13 09:41:41;;;;;;;10.13;5.22;;;;;;;22.27;73.05;100956.97;5073004;28;20025;-86
2022/09/13 09:44:16;;;;;;;5.45;3.65;;;;;;;22.37;73.21;100958.94;5074038;28;20024;-86
2022/09/13 09:46:44;;;;;;;4.70;3.47;;;;;;;22.43;73.13;100955.09;5073004;28;20032;-86
2022/09/13 09:52:15;;;;;;;6.38;3.97;;;;;;;22.48;72.98;100960.06;5073955;28;20512;-86
2022/09/13 09:54:40;;;;;;;3.75;2.97;;;;;;;22.62;73.14;100954.75;5073320;28;20112;-86
2022/09/13 09:57:07;;;;;;;3.03;2.43;;;;;;;22.75;73.03;100951.28;5064610;28;20159;-86
2022/09/13 09:59:33;;;;;;;;;;;;;;;22.85;71.78;100952.41;5059852;28;20085;-87
2022/09/13 10:02:10;;;;;;;;;;;;;;;22.90;70.78;100950.31;5068816;28;20428;-87
2022/09/13 10:04:35;;;;;;;18.33;10.05;;;;;;;22.96;69.65;100951.69;5067014;28;19912;-86
2022/09/13 10:07:17;;;;;;;14.70;7.60;;;;;;;23.01;71.04;100943.44;5073482;28;20032;-86
2022/09/13 10:10:05;;;;;;;10.45;5.18;;;;;;;23.21;71.56;100950.09;5052645;28;20017;-86
2022/09/13 10:12:33;;;;;;;8.02;4.75;;;;;;;23.46;71.33;100946.63;5064777;28;20051;-86
2022/09/13 10:15:25;;;;;;;5.50;3.47;;;;;;;23.71;68.78;100947.59;5071223;28;20044;-86
2022/09/13 10:18:24;;;;;;;7.63;4.63;;;;;;;23.66;69.29;100947.91;5057964;28;20477;-86
2022/09/13 10:21:00;;;;;;;5.43;3.38;;;;;;;23.54;69.98;100941.63;5038400;28;20496;-86
2022/09/13 10:23:26;;;;;;;;;;;;;;;23.53;69.43;100933.81;5056943;28;20175;-86
2022/09/13 10:25:57;;;;;;;;;;;;;;;23.66;70.36;100926.72;5053079;28;20400;-86
2022/09/13 10:28:24;;;;;;;5.05;3.40;;;;;;;23.84;68.25;100929.03;5053346;28;20342;-86
2022/09/13 10:31:01;;;;;;;5.15;3.33;;;;;;;24.09;69.48;100941.44;5056353;28;20016;-86
2022/09/13 10:33:31;;;;;;;2.60;2.40;;;;;;;24.27;69.34;100938.41;5072628;28;20124;-86
2022/09/13 10:36:00;;;;;;;4.05;2.90;;;;;;;24.31;68.07;100946.03;5072536;28;20033;-86
2022/09/13 10:38:41;;;;;;;4.38;3.22;;;;;;;24.16;68.72;100940.03;5071323;28;20036;-86
2022/09/13 10:41:10;;;;;;;2.90;2.40;;;;;;;24.05;68.96;100932.00;5073200;28;20107;-86
2022/09/13 10:43:36;;;;;;;2.22;2.03;;;;;;;23.97;69.26;100942.31;5071490;28;20064;-86
2022/09/13 10:46:04;;;;;;;10.35;4.90;;;;;;;23.85;65.73;100933.38;5059136;28;20473;-86
2022/09/13 10:48:42;;;;;;;11.30;5.88;;;;;;;23.77;66.30;100928.59;5072454;28;20039;-86
2022/09/13 10:51:20;;;;;;;5.65;3.70;;;;;;;23.82;68.63;100934.44;5073039;28;20024;-86
2022/09/13 10:53:46;;;;;;;3.63;2.78;;;;;;;23.94;68.75;100932.72;5052724;28;20035;-86
2022/09/13 10:56:24;;;;;;;5.22;3.30;;;;;;;23.91;68.03;100936.44;5053198;28;20017;-86
2022/09/13 10:58:49;;;;;;;5.20;3.20;;;;;;;23.89;68.23;100933.03;5071434;28;20035;-86
2022/09/13 11:01:39;;;;;;;2.92;2.55;;;;;;;23.89;68.88;100926.91;5070390;28;20384;-86
2022/09/13 11:04:23;;;;;;;2.40;2.20;;;;;;;23.95;68.81;100925.63;5070793;28;20485;-86
2022/09/13 11:07:01;;;;;;;6.55;3.08;;;;;;;23.94;68.53;100922.13;5066968;28;20469;-86
2022/09/13 11:09:36;;;;;;;6.55;3.80;;;;;;;23.81;67.18;100916.00;5052639;28;20028;-85
2022/09/13 11:12:18;;;;;;;9.82;5.63;;;;;;;23.57;66.25;100907.00;5054045;28;20535;-85
2022/09/13 11:15:03;;;;;;;6.40;4.18;;;;;;;23.46;68.39;100911.38;5070934;28;20021;-86
2022/09/13 11:17:47;;;;;;;4.47;3.30;;;;;;;23.44;68.58;100908.81;5071618;28;20041;-86
2022/09/13 11:20:25;;;;;;;3.03;2.40;;;;;;;23.52;69.23;100901.19;5055508;28;20095;-85
2022/09/13 11:23:11;;;;;;;3.60;2.85;;;;;;;23.59;67.35;100905.09;5071014;28;20431;-86
2022/09/13 11:26:07;;;;;;;5.15;3.33;;;;;;;23.58;67.62;100899.91;5052215;28;20078;-85
2022/09/13 11:28:48;;;;;;;5.18;3.30;;;;;;;23.62;67.77;100895.25;5052111;28;20036;-86
2022/09/13 11:31:55;;;;;;;3.35;2.70;;;;;;;23.80;67.78;100901.91;5064217;28;20021;-86
2022/09/13 11:34:27;;;;;;;2.40;2.20;;;;;;;24.02;66.67;100900.41;5029309;28;20063;-87
2022/09/13 11:37:15;;;;;;;7.28;3.80;;;;;;;24.10;63.38;100895.38;5052507;28;20035;-87
2022/09/13 11:40:09;;;;;;;5.13;3.40;;;;;;;24.09;66.34;100901.69;5053381;28;20492;-87
2022/09/13 11:42:49;;;;;;;3.45;2.60;;;;;;;24.22;67.06;100904.28;5051911;28;20098;-87
2022/09/13 11:45:20;;;;;;;2.15;1.98;;;;;;;24.40;67.29;100898.59;5052576;28;20025;-87
2022/09/13 11:48:06;;;;;;;2.00;1.90;;;;;;;24.62;67.41;100900.53;5051428;28;20561;-86
2022/09/13 11:50:43;;;;;;;1.40;1.40;;;;;;;24.83;66.63;100893.63;5052376;28;20017;-87
2022/09/13 11:53:21;;;;;;;1.63;1.52;;;;;;;25.03;63.31;100899.25;5052238;28;20021;-85